Time;durP1;ratioP1;P1;durP2;ratioP2;P2;SDS_P1;SDS_P2;PMS_P1;PMS_P2;Temp;Humidity;BMP_temperature;BMP_pressure;BME280_temperature;BME280_humidity;BME280_pressure;Samples;Min_cycle;Max_cycle;Signal;HPM_P1;HPM_P2
2021/01/02 00:02:38;;;;;;;90.30;44.30;;;;;;;2.71;100.00;100765.84;4993430;28;20108;-90
2021/01/02 00:05:06;;;;;;;90.68;47.40;;;;;;;2.71;100.00;100768.47;4998040;28;20042;-89
2021/01/02 00:07:56;;;;;;;96.93;47.10;;;;;;;2.71;100.00;100760.53;4997241;28;20096;-91
2021/01/02 00:10:23;;;;;;;92.85;49.53;;;;;;;2.73;100.00;100766.53;5006935;28;20038;-88
2021/01/02 00:13:13;;;;;;;84.85;45.72;;;;;;;2.74;100.00;100770.06;4964230;28;20479;-90
2021/01/02 00:16:05;;;;;;;92.82;45.08;;;;;;;2.72;100.00;100767.50;4990654;28;20191;-90
2021/01/02 00:18:40;;;;;;;90.50;48.95;;;;;;;2.73;100.00;100766.53;5008134;28;20541;-87
2021/01/02 00:21:23;;;;;;;97.68;48.25;;;;;;;2.72;100.00;100768.34;4983878;28;20086;-86
2021/01/02 00:23:58;;;;;;;92.03;48.28;;;;;;;2.72;100.00;100770.16;4988884;28;20041;-89
2021/01/02 00:26:44;;;;;;;93.97;50.08;;;;;;;2.76;100.00;100778.72;4992243;28;20038;-85
2021/01/02 00:29:51;;;;;;;111.43;57.53;;;;;;;2.72;100.00;100783.41;4990358;28;20038;-87
2021/01/02 00:32:29;;;;;;;95.78;51.22;;;;;;;2.70;100.00;100780.91;4969719;28;20037;-91
2021/01/02 00:35:04;;;;;;;85.30;42.15;;;;;;;2.71;100.00;100779.09;4996150;28;20030;-90
2021/01/02 00:37:51;;;;;;;89.10;49.13;;;;;;;2.70;100.00;100777.38;5011418;28;20100;-86
2021/01/02 00:40:19;;;;;;;91.60;48.13;;;;;;;2.68;100.00;100774.00;4982843;28;20046;-90
2021/01/02 00:42:46;;;;;;;91.50;45.83;;;;;;;2.70;100.00;100785.31;4976131;28;20085;-91
2021/01/02 00:45:15;;;;;;;98.28;52.63;;;;;;;2.73;100.00;100787.75;4978205;28;20038;-89
2021/01/02 00:47:42;;;;;;;94.15;46.88;;;;;;;2.73;100.00;100785.09;4993788;28;20046;-84
2021/01/02 00:50:16;;;;;;;93.55;50.25;;;;;;;2.74;100.00;100781.50;4999624;28;20068;-88
2021/01/02 00:52:44;;;;;;;92.63;47.67;;;;;;;2.73;100.00;100779.78;4953208;28;20049;-92
2021/01/02 00:55:13;;;;;;;92.72;46.60;;;;;;;2.74;100.00;100789.44;5004543;28;20060;-90
2021/01/02 00:58:09;;;;;;;91.45;42.92;;;;;;;2.71;100.00;100787.03;4996799;28;20505;-86
2021/01/02 01:00:42;;;;;;;88.70;42.85;;;;;;;2.69;100.00;100787.13;4992083;28;20042;-89
2021/01/02 01:03:29;;;;;;;85.95;43.28;;;;;;;2.70;100.00;100785.31;4983269;28;20117;-88
2021/01/02 01:05:56;;;;;;;95.90;51.60;;;;;;;2.72;100.00;100788.72;4984712;28;20095;-89
2021/01/02 01:08:24;;;;;;;99.30;51.90;;;;;;;2.73;100.00;100795.69;4975115;28;20124;-88
2021/01/02 01:10:52;;;;;;;97.60;50.60;;;;;;;2.72;100.00;100794.00;4995260;28;20516;-89
2021/01/02 01:13:25;;;;;;;94.18;52.22;;;;;;;2.73;100.00;100795.69;4977932;28;20145;-93
2021/01/02 01:15:51;;;;;;;94.18;51.30;;;;;;;2.72;100.00;100791.34;4978260;28;20049;-87
2021/01/02 01:18:29;;;;;;;91.53;45.03;;;;;;;2.70;100.00;100783.53;4982171;28;20259;-88
2021/01/02 01:21:01;;;;;;;98.68;52.17;;;;;;;2.71;100.00;100792.34;4998791;28;20037;-86
2021/01/02 01:23:52;;;;;;;87.55;44.72;;;;;;;2.71;100.00;100792.34;5017570;28;20038;-87
2021/01/02 01:26:36;;;;;;;92.97;47.38;;;;;;;2.68;100.00;100801.34;5005762;28;20097;-87
2021/01/02 01:29:04;;;;;;;95.65;45.50;;;;;;;2.69;100.00;100797.72;4998782;28;20683;-84
2021/01/02 01:31:43;;;;;;;101.95;55.30;;;;;;;2.69;100.00;100804.84;5013386;28;20087;-87
2021/01/02 01:34:11;;;;;;;93.25;50.55;;;;;;;2.68;100.00;100809.31;5005588;28;20513;-85
2021/01/02 01:36:42;;;;;;;97.50;51.50;;;;;;;2.72;100.00;100812.56;5001048;28;20077;-86
2021/01/02 01:39:07;;;;;;;91.72;47.83;;;;;;;2.70;100.00;100809.16;5011713;28;20038;-87
2021/01/02 01:41:33;;;;;;;102.53;56.05;;;;;;;2.72;100.00;100820.50;5006913;28;20038;-86
2021/01/02 01:44:04;;;;;;;98.95;51.72;;;;;;;2.73;100.00;100816.88;5010368;28;20080;-88
2021/01/02 01:46:33;;;;;;;97.90;53.78;;;;;;;2.69;100.00;100818.94;4990677;28;20045;-86
2021/01/02 01:49:10;;;;;;;96.28;48.58;;;;;;;2.68;100.00;100822.53;4977721;28;20364;-87
2021/01/02 01:51:54;;;;;;;100.60;45.58;;;;;;;2.67;100.00;100823.47;4989488;28;20068;-91
2021/01/02 01:54:57;;;;;;;100.50;50.95;;;;;;;2.66;100.00;100820.97;5014663;28;20522;-86
2021/01/02 01:57:28;;;;;;;94.32;45.03;;;;;;;2.64;100.00;100838.78;4990138;28;20124;-90
2021/01/02 01:59:56;;;;;;;93.65;45.90;;;;;;;2.66;100.00;100834.22;4979123;28;20033;-88
2021/01/02 02:02:43;;;;;;;107.33;55.13;;;;;;;2.65;100.00;100828.06;4998231;28;20040;-89
2021/01/02 02:05:11;;;;;;;97.95;48.22;;;;;;;2.64;100.00;100833.47;4993822;28;20284;-89
2021/01/02 02:07:41;;;;;;;107.00;52.42;;;;;;;2.65;100.00;100829.88;5000931;28;20046;-90
2021/01/02 02:10:07;;;;;;;103.90;47.83;;;;;;;2.64;100.00;100833.47;5008970;28;20402;-86
2021/01/02 02:12:34;;;;;;;106.85;55.50;;;;;;;2.65;100.00;100832.53;4993946;28;20057;-91
2021/01/02 02:15:00;;;;;;;112.13;57.17;;;;;;;2.65;100.00;100838.66;4994239;28;20052;-86
2021/01/02 02:17:27;;;;;;;108.93;54.08;;;;;;;2.64;100.00;100831.66;4998138;28;20494;-88
2021/01/02 02:20:05;;;;;;;113.05;58.63;;;;;;;2.66;100.00;100836.88;4991469;28;20125;-87
2021/01/02 02:22:35;;;;;;;113.75;59.03;;;;;;;2.66;100.00;100842.16;4998940;28;20389;-87
2021/01/02 02:25:03;;;;;;;109.07;47.70;;;;;;;2.63;100.00;100842.38;4992080;28;20044;-88
2021/01/02 02:27:33;;;;;;;108.43;52.58;;;;;;;2.62;100.00;100840.72;4993417;28;20034;-88
2021/01/02 02:30:07;;;;;;;105.43;50.10;;;;;;;2.62;100.00;100830.09;4993503;28;20038;-87
2021/01/02 02:32:35;;;;;;;114.72;57.67;;;;;;;2.63;100.00;100839.75;4987091;28;20041;-88
2021/01/02 02:35:16;;;;;;;98.95;48.30;;;;;;;2.59;100.00;100825.00;5010839;28;20486;-92
2021/01/02 02:37:52;;;;;;;101.07;48.53;;;;;;;2.61;100.00;100833.69;5001651;28;20100;-87
2021/01/02 02:40:19;;;;;;;103.30;48.33;;;;;;;2.57;100.00;100834.88;5008364;28;20045;-84
2021/01/02 02:42:59;;;;;;;104.82;44.25;;;;;;;2.57;100.00;100830.44;5010359;28;20084;-86
2021/01/02 02:45:27;;;;;;;111.95;59.35;;;;;;;2.61;100.00;100828.41;5012027;28;20076;-89
2021/01/02 02:47:55;;;;;;;109.00;53.67;;;;;;;2.58;100.00;100833.91;4990533;28;20041;-88
2021/01/02 02:50:24;;;;;;;108.68;54.95;;;;;;;2.58;100.00;100829.47;4990297;28;20507;-87
2021/01/02 02:53:07;;;;;;;;;;;;;;;2.57;100.00;100832.25;4976698;28;20049;-86
2021/01/02 02:55:37;;;;;;;102.82;50.97;;;;;;;2.49;100.00;100830.13;5011773;28;19921;-86
2021/01/02 02:58:03;;;;;;;104.10;49.97;;;;;;;2.51;100.00;100832.69;5003614;28;20061;-87
2021/01/02 03:00:29;;;;;;;104.57;53.90;;;;;;;2.53;100.00;100831.59;5009090;28;20042;-90
2021/01/02 03:02:55;;;;;;;109.25;51.53;;;;;;;2.55;100.00;100839.44;4996701;28;20375;-88
2021/01/02 03:05:20;;;;;;;108.55;53.42;;;;;;;2.56;100.00;100838.47;4972541;28;20080;-89
2021/01/02 03:07:47;;;;;;;119.30;54.85;;;;;;;2.57;100.00;100842.84;4974605;28;20050;-88
2021/01/02 03:10:15;;;;;;;104.75;47.65;;;;;;;2.55;100.00;100842.09;5010431;28;20087;-86
2021/01/02 03:12:46;;;;;;;104.10;52.88;;;;;;;2.56;100.00;100838.47;4977595;28;20069;-88
2021/01/02 03:15:13;;;;;;;105.78;54.72;;;;;;;2.54;100.00;100838.59;4988902;28;20038;-88
2021/01/02 03:17:40;;;;;;;110.07;58.72;;;;;;;2.57;100.00;100843.69;4978444;28;20481;-86
2021/01/02 03:20:06;;;;;;;109.38;53.65;;;;;;;2.55;100.00;100840.28;4989590;28;20043;-90
2021/01/02 03:22:32;;;;;;;100.97;52.60;;;;;;;2.55;100.00;100837.63;4999029;28;20052;-92
2021/01/02 03:24:57;;;;;;;109.93;54.65;;;;;;;2.56;100.00;100841.13;4975171;28;20049;-86
2021/01/02 03:27:23;;;;;;;109.68;53.55;;;;;;;2.55;100.00;100845.59;5017713;28;20121;-85
2021/01/02 03:29:48;;;;;;;102.68;55.33;;;;;;;2.56;100.00;100843.78;4975086;28;20133;-89
2021/01/02 03:32:14;;;;;;;107.75;51.72;;;;;;;2.54;100.00;100837.75;5005243;28;20041;-91
2021/01/02 03:34:40;;;;;;;100.35;48.72;;;;;;;2.56;100.00;100846.44;4995434;28;20104;-93
2021/01/02 03:37:06;;;;;;;109.70;54.78;;;;;;;2.54;100.00;100832.47;4966522;28;20040;-87
2021/01/02 03:39:33;;;;;;;118.18;58.20;;;;;;;2.58;100.00;100840.06;4963759;28;20043;-89
2021/01/02 03:41:58;;;;;;;103.30;53.70;;;;;;;2.55;100.00;100834.16;4988092;28;20502;-87
2021/01/02 03:44:23;;;;;;;109.88;48.20;;;;;;;2.56;100.00;100835.81;4975270;28;20042;-89
2021/01/02 03:46:49;;;;;;;102.65;48.17;;;;;;;2.56;100.00;100838.47;4993273;28;20597;-87
2021/01/02 03:49:14;;;;;;;106.45;48.38;;;;;;;2.55;100.00;100828.84;4983523;28;20046;-89
2021/01/02 03:51:39;;;;;;;115.75;62.25;;;;;;;2.55;100.00;100826.19;5007191;28;20052;-88
2021/01/02 03:54:08;;;;;;;110.63;56.80;;;;;;;2.53;100.00;100822.81;4994661;28;20106;-86
2021/01/02 03:56:34;;;;;;;105.50;51.78;;;;;;;2.53;100.00;100833.41;4993994;28;20053;-86
2021/01/02 03:59:00;;;;;;;118.60;60.42;;;;;;;2.54;100.00;100827.16;5007816;28;20052;-87
2021/01/02 04:01:26;;;;;;;114.90;62.50;;;;;;;2.56;100.00;100827.88;4992002;28;20116;-88
2021/01/02 04:03:55;;;;;;;111.00;52.72;;;;;;;2.50;100.00;100834.47;4999610;28;20066;-90
2021/01/02 04:06:25;;;;;;;117.90;59.03;;;;;;;2.48;100.00;100826.66;4993187;28;20128;-87
2021/01/02 04:08:50;;;;;;;111.20;62.92;;;;;;;2.48;100.00;100829.31;4982659;28;20150;-91
2021/01/02 04:11:18;;;;;;;125.45;62.92;;;;;;;2.49;100.00;100838.09;4981632;28;20121;-91
2021/01/02 04:13:43;;;;;;;104.55;50.67;;;;;;;2.48;100.00;100839.06;5015694;28;20042;-89
2021/01/02 04:16:08;;;;;;;113.40;61.25;;;;;;;2.44;100.00;100832.25;4994880;28;20391;-85
2021/01/02 04:18:34;;;;;;;107.57;54.00;;;;;;;2.45;100.00;100839.28;4981167;28;20034;-88
2021/01/02 04:21:00;;;;;;;118.50;60.25;;;;;;;2.44;100.00;100835.75;4990596;28;20054;-87
2021/01/02 04:23:28;;;;;;;112.75;53.60;;;;;;;2.40;100.00;100831.66;5014870;28;20039;-89
2021/01/02 04:25:53;;;;;;;107.40;55.97;;;;;;;2.36;100.00;100830.19;4994500;28;20047;-90
2021/01/02 04:28:20;;;;;;;105.50;52.50;;;;;;;2.39;100.00;100827.31;4984559;28;20046;-90
2021/01/02 04:30:45;;;;;;;110.72;58.95;;;;;;;2.36;100.00;100830.19;4995104;28;20056;-90
2021/01/02 04:33:10;;;;;;;112.70;57.28;;;;;;;2.40;100.00;100833.47;4993218;28;20133;-85
2021/01/02 04:35:38;;;;;;;103.63;56.28;;;;;;;2.36;100.00;100822.25;4963977;28;20042;-91
2021/01/02 04:38:03;;;;;;;104.93;53.38;;;;;;;2.33;100.00;100829.53;4976242;28;20046;-87
2021/01/02 04:40:30;;;;;;;103.50;57.00;;;;;;;2.34;100.00;100829.44;5008477;28;20046;-89
2021/01/02 04:42:55;;;;;;;106.30;58.33;;;;;;;2.34;100.00;100826.81;4981975;28;20121;-88
2021/01/02 04:45:21;;;;;;;101.75;54.08;;;;;;;2.30;100.00;100822.66;4995898;28;20120;-86
2021/01/02 04:47:49;;;;;;;101.70;53.13;;;;;;;2.30;100.00;100827.97;4998258;28;20100;-87
2021/01/02 04:50:15;;;;;;;103.95;50.20;;;;;;;2.31;100.00;100828.84;4995716;28;20045;-88
2021/01/02 04:52:41;;;;;;;97.88;52.70;;;;;;;2.33;100.00;100832.19;4976712;28;20045;-86
2021/01/02 04:55:16;;;;;;;101.75;55.88;;;;;;;2.31;100.00;100831.47;5000284;28;20379;-88
2021/01/02 04:57:44;;;;;;;95.63;45.58;;;;;;;2.30;100.00;100827.13;5009398;28;20053;-86
2021/01/02 05:00:11;;;;;;;98.22;52.63;;;;;;;2.29;100.00;100833.38;5010274;28;20053;-86
2021/01/02 05:02:38;;;;;;;100.75;48.78;;;;;;;2.28;100.00;100832.53;4973914;28;20129;-87
2021/01/02 05:05:06;;;;;;;102.80;57.60;;;;;;;2.29;100.00;100836.88;5000419;28;20030;-88
2021/01/02 05:07:33;;;;;;;99.68;55.63;;;;;;;2.27;100.00;100836.13;5008613;28;20103;-88
2021/01/02 05:09:58;;;;;;;106.00;57.17;;;;;;;2.28;100.00;100843.13;4997993;28;20054;-87
2021/01/02 05:12:28;;;;;;;95.72;50.95;;;;;;;2.28;100.00;100843.13;4968146;28;20042;-86
2021/01/02 05:15:12;;;;;;;94.85;54.25;;;;;;;2.27;100.00;100852.00;4980327;28;20050;-86
2021/01/02 05:17:39;;;;;;;101.72;57.53;;;;;;;2.27;100.00;100849.38;5009914;28;20111;-89
2021/01/02 05:20:10;;;;;;;99.35;48.35;;;;;;;2.23;100.00;100861.16;5009769;28;20486;-87
2021/01/02 05:22:41;;;;;;;102.38;49.53;;;;;;;2.24;100.00;100852.22;4979431;28;20486;-89
2021/01/02 05:25:07;;;;;;;96.22;50.28;;;;;;;2.24;100.00;100863.69;5004705;28;20049;-88
2021/01/02 05:27:35;;;;;;;93.90;50.67;;;;;;;2.24;100.00;100858.41;5009322;28;20493;-84
2021/01/02 05:30:27;;;;;;;103.60;53.10;;;;;;;2.24;100.00;100860.19;4993741;28;20498;-85
2021/01/02 05:33:08;;;;;;;99.07;51.95;;;;;;;2.24;100.00;100862.81;4980467;28;20077;-90
2021/01/02 05:35:43;;;;;;;93.82;51.33;;;;;;;2.22;100.00;100862.94;5007582;28;20038;-88
2021/01/02 05:38:15;;;;;;;92.03;51.63;;;;;;;2.21;100.00;100866.53;4969720;28;20050;-89
2021/01/02 05:40:58;;;;;;;95.97;55.20;;;;;;;2.26;100.00;100867.06;5014916;28;20117;-90
2021/01/02 05:43:26;;;;;;;91.40;48.88;;;;;;;2.25;100.00;100872.47;4993315;28;20069;-87
2021/01/02 05:45:53;;;;;;;97.32;56.25;;;;;;;2.26;100.00;100874.16;4987619;28;20108;-87
2021/01/02 05:48:25;;;;;;;94.63;53.22;;;;;;;2.25;100.00;100875.13;4993058;28;20495;-85
2021/01/02 05:50:50;;;;;;;96.53;53.38;;;;;;;2.23;100.00;100874.38;4998739;28;20054;-87
2021/01/02 05:53:20;;;;;;;99.55;54.28;;;;;;;2.26;100.00;100868.88;5011206;28;20069;-89
2021/01/02 05:55:46;;;;;;;97.47;55.25;;;;;;;2.27;100.00;100878.50;5013141;28;20494;-86
2021/01/02 05:58:18;;;;;;;100.22;54.60;;;;;;;2.26;100.00;100871.50;4995998;28;20042;-84
2021/01/02 06:00:45;;;;;;;96.88;49.88;;;;;;;2.20;100.00;100869.31;4999341;28;20040;-86
2021/01/02 06:03:28;;;;;;;91.05;50.92;;;;;;;2.22;100.00;100870.06;4993791;28;20490;-88
2021/01/02 06:06:02;;;;;;;94.95;54.90;;;;;;;2.23;100.00;100879.69;4962268;28;20099;-86
2021/01/02 06:08:39;;;;;;;91.85;49.53;;;;;;;2.24;100.00;100879.59;4980752;28;20042;-87
2021/01/02 06:11:10;;;;;;;95.97;52.15;;;;;;;2.22;100.00;100883.28;4993401;28;20033;-95
2021/01/02 06:13:38;;;;;;;95.13;52.85;;;;;;;2.22;100.00;100889.44;5009914;28;20058;-90
2021/01/02 06:16:06;;;;;;;94.65;48.85;;;;;;;2.20;100.00;100891.34;5008812;28;20045;-86
2021/01/02 06:18:39;;;;;;;89.47;46.92;;;;;;;2.19;100.00;100896.75;4978859;28;20069;-89
2021/01/02 06:21:15;;;;;;;96.78;55.28;;;;;;;2.22;100.00;100886.78;4967530;28;20373;-88
2021/01/02 06:23:45;;;;;;;100.28;55.75;;;;;;;2.20;100.00;100898.44;4995420;28;21665;-89
2021/01/02 06:26:11;;;;;;;94.72;53.75;;;;;;;2.21;100.00;100895.66;4992805;28;20046;-86
2021/01/02 06:28:39;;;;;;;89.60;49.03;;;;;;;2.18;100.00;100897.69;5001713;28;20038;-87
2021/01/02 06:31:11;;;;;;;92.15;48.10;;;;;;;2.19;100.00;100897.59;4993092;28;20042;-90
2021/01/02 06:33:50;;;;;;;93.78;52.47;;;;;;;2.20;100.00;100893.13;4975922;28;20395;-87
2021/01/02 06:36:30;;;;;;;87.70;43.45;;;;;;;2.17;100.00;100894.19;4993882;28;20045;-85
2021/01/02 06:39:24;;;;;;;96.80;54.00;;;;;;;2.19;100.00;100902.03;4993143;28;20041;-87
2021/01/02 06:41:55;;;;;;;93.85;53.75;;;;;;;2.19;100.00;100899.41;4991952;28;20050;-87
2021/01/02 06:44:39;;;;;;;95.00;50.35;;;;;;;2.17;100.00;100898.66;4989389;28;20053;-87
2021/01/02 06:47:31;;;;;;;98.85;52.15;;;;;;;2.14;100.00;100902.34;4983837;28;20136;-89
2021/01/02 06:50:20;;;;;;;95.40;47.90;;;;;;;2.13;100.00;100905.09;4996219;28;20502;-90
2021/01/02 06:52:46;;;;;;;95.30;54.30;;;;;;;2.15;100.00;100896.09;4945348;28;20046;-87
2021/01/02 06:55:27;;;;;;;100.10;56.42;;;;;;;2.14;100.00;100898.88;4989453;28;20486;-86
2021/01/02 06:58:15;;;;;;;106.22;54.95;;;;;;;2.14;100.00;100904.16;4974990;28;20045;-90
2021/01/02 07:00:40;;;;;;;101.25;44.80;;;;;;;2.14;100.00;100909.47;5002516;28;20050;-88
2021/01/02 07:03:40;;;;;;;101.25;58.53;;;;;;;2.14;100.00;100912.09;4975604;28;20453;-86
2021/01/02 07:06:24;;;;;;;105.47;59.88;;;;;;;2.14;100.00;100915.59;4978297;28;20046;-90
2021/01/02 07:08:56;;;;;;;104.32;58.22;;;;;;;2.16;100.00;100918.16;4972670;28;20051;-84
2021/01/02 07:11:30;;;;;;;108.57;53.72;;;;;;;2.13;100.00;100907.75;4992276;28;20038;-86
2021/01/02 07:14:17;;;;;;;109.03;54.30;;;;;;;2.12;100.00;100914.84;5010926;28;20042;-88
2021/01/02 07:17:04;;;;;;;102.50;52.97;;;;;;;2.14;100.00;100920.06;4974332;28;20413;-91
2021/01/02 07:19:38;;;;;;;103.93;52.72;;;;;;;2.12;100.00;100924.59;4995030;28;20038;-88
2021/01/02 07:22:21;;;;;;;99.20;51.75;;;;;;;2.11;100.00;100925.56;4962695;28;20046;-88
2021/01/02 07:24:50;;;;;;;101.25;52.85;;;;;;;2.09;100.00;100928.28;4995865;28;20518;-85
2021/01/02 07:27:18;;;;;;;106.93;55.87;;;;;;;2.10;100.00;100930.00;4995378;28;20555;-86
2021/01/02 07:29:46;;;;;;;102.60;55.58;;;;;;;2.11;100.00;100929.03;5017514;28;20524;-86
2021/01/02 07:32:23;;;;;;;113.97;54.37;;;;;;;2.08;100.00;100926.63;4999630;28;20552;-89
2021/01/02 07:34:51;;;;;;;103.75;56.25;;;;;;;2.07;100.00;100929.34;4995849;28;20046;-92
2021/01/02 07:37:18;;;;;;;107.32;54.33;;;;;;;2.08;100.00;100928.41;5005758;28;20033;-93
2021/01/02 07:40:14;;;;;;;105.82;56.65;;;;;;;2.09;100.00;100927.44;4996850;28;20514;-86
2021/01/02 07:42:41;;;;;;;110.03;57.42;;;;;;;2.09;100.00;100925.66;4980683;28;20076;-86
2021/01/02 07:45:12;;;;;;;100.70;53.92;;;;;;;2.08;100.00;100936.34;4996920;28;20057;-85
2021/01/02 07:47:52;;;;;;;106.03;54.80;;;;;;;2.07;100.00;100939.94;4999681;28;20045;-92
2021/01/02 07:50:20;;;;;;;110.60;59.22;;;;;;;2.05;100.00;100944.50;4992745;28;20068;-91
2021/01/02 07:52:53;;;;;;;111.18;58.45;;;;;;;2.01;100.00;100941.22;4996813;28;20100;-93
2021/01/02 07:55:31;;;;;;;107.10;53.58;;;;;;;1.99;100.00;100949.28;5010208;28;20029;-87
2021/01/02 07:57:56;;;;;;;114.25;62.05;;;;;;;2.01;100.00;100944.72;4991358;28;20036;-84
2021/01/02 08:00:23;;;;;;;103.88;56.83;;;;;;;1.99;100.00;100943.13;4993662;28;20446;-87
2021/01/02 08:02:48;;;;;;;107.45;58.55;;;;;;;2.02;100.00;100945.56;4966508;28;20107;-89
2021/01/02 08:05:16;;;;;;;119.78;60.72;;;;;;;2.00;100.00;100947.47;4977421;28;20050;-85
2021/01/02 08:07:50;;;;;;;118.38;57.47;;;;;;;1.98;100.00;100957.31;4994889;28;20367;-87
2021/01/02 08:10:16;;;;;;;107.78;59.45;;;;;;;2.03;100.00;100948.09;4992214;28;20038;-86
2021/01/02 08:12:51;;;;;;;117.47;59.92;;;;;;;1.98;100.00;100952.84;4992706;28;20033;-86
2021/01/02 08:15:43;;;;;;;113.95;57.67;;;;;;;1.97;100.00;100956.47;5010020;28;20095;-89
2021/01/02 08:18:10;;;;;;;106.20;56.97;;;;;;;1.97;100.00;100960.91;5007099;28;20397;-89
2021/01/02 08:20:37;;;;;;;108.30;49.67;;;;;;;1.93;100.00;100955.00;4993075;28;20509;-87
2021/01/02 08:23:07;;;;;;;102.88;50.05;;;;;;;1.94;100.00;100961.97;4994029;28;20041;-91
2021/01/02 08:25:33;;;;;;;113.95;56.03;;;;;;;1.96;100.00;100965.38;5001195;28;20053;-89
2021/01/02 08:27:58;;;;;;;109.18;53.45;;;;;;;1.95;100.00;100976.03;4996959;28;20117;-86
2021/01/02 08:30:24;;;;;;;107.63;56.85;;;;;;;1.94;100.00;100964.63;4975997;28;20049;-88
2021/01/02 08:32:55;;;;;;;117.85;55.78;;;;;;;1.94;100.00;100975.19;4993891;28;20053;-89
2021/01/02 08:35:49;;;;;;;106.35;51.17;;;;;;;1.91;100.00;100972.75;4977992;28;20084;-88
2021/01/02 08:38:15;;;;;;;118.05;54.13;;;;;;;1.91;100.00;100972.75;4985259;28;20045;-92
2021/01/02 08:40:46;;;;;;;119.93;60.15;;;;;;;1.94;100.00;100980.50;4973660;28;20042;-87
2021/01/02 08:43:24;;;;;;;133.35;61.13;;;;;;;1.94;100.00;100977.84;4963684;28;20115;-85
2021/01/02 08:45:52;;;;;;;135.73;65.22;;;;;;;1.95;100.00;100979.53;4993872;28;20097;-83
2021/01/02 08:48:19;;;;;;;133.60;66.72;;;;;;;1.95;100.00;100983.97;5015725;28;20042;-85
2021/01/02 08:50:44;;;;;;;128.90;59.15;;;;;;;1.92;100.00;100987.69;4999404;28;20088;-86
2021/01/02 08:53:31;;;;;;;128.05;63.83;;;;;;;1.94;100.00;100993.72;4993814;28;20089;-84
2021/01/02 08:55:57;;;;;;;134.35;61.10;;;;;;;1.89;100.00;100995.00;4996016;28;20046;-87
2021/01/02 08:58:33;;;;;;;126.85;58.58;;;;;;;1.86;100.00;100990.75;5012654;28;20045;-86
2021/01/02 09:00:58;;;;;;;123.70;55.95;;;;;;;1.90;100.00;100994.03;5013227;28;20127;-93
2021/01/02 09:03:24;;;;;;;135.70;56.90;;;;;;;1.90;100.00;100992.25;4992623;28;20070;-91
2021/01/02 09:05:49;;;;;;;129.60;59.83;;;;;;;1.90;100.00;100994.91;5007912;28;20038;-88
2021/01/02 09:08:19;;;;;;;137.75;66.00;;;;;;;1.88;100.00;101003.88;5008372;28;20046;-90
2021/01/02 09:10:47;;;;;;;127.75;58.58;;;;;;;1.89;100.00;100993.19;4992769;28;20037;-87
2021/01/02 09:13:25;;;;;;;129.05;60.75;;;;;;;1.90;100.00;101001.97;4992367;28;20076;-86
2021/01/02 09:15:58;;;;;;;120.50;53.92;;;;;;;1.87;100.00;100999.53;4975740;28;20116;-89
2021/01/02 09:18:23;;;;;;;124.43;54.30;;;;;;;1.86;100.00;101001.34;4991945;28;20140;-89
2021/01/02 09:20:48;;;;;;;127.72;63.75;;;;;;;1.90;100.00;101004.63;5012207;28;20122;-89
2021/01/02 09:23:14;;;;;;;143.07;67.82;;;;;;;1.93;100.00;101002.63;4959140;28;20041;-85
2021/01/02 09:25:40;;;;;;;135.60;57.95;;;;;;;1.88;100.00;101009.19;4977428;28;20141;-92
2021/01/02 09:28:12;;;;;;;124.53;58.40;;;;;;;1.90;100.00;101016.06;4991878;28;20044;-90
2021/01/02 09:30:38;;;;;;;129.98;55.28;;;;;;;1.87;100.00;101018.94;5004786;28;20045;-85
2021/01/02 09:33:08;;;;;;;121.90;53.35;;;;;;;1.87;100.00;101013.63;5014100;28;20045;-89
2021/01/02 09:35:35;;;;;;;125.30;58.58;;;;;;;1.90;100.00;101010.78;5014371;28;20038;-89
2021/01/02 09:38:02;;;;;;;134.32;64.45;;;;;;;1.92;100.00;101019.44;4996356;28;20049;-86
2021/01/02 09:40:27;;;;;;;124.40;57.60;;;;;;;1.92;100.00;101024.72;4998311;28;20042;-87
2021/01/02 09:42:52;;;;;;;123.35;52.08;;;;;;;1.94;100.00;101027.28;5014085;28;20056;-90
2021/01/02 09:45:18;;;;;;;137.15;67.43;;;;;;;2.01;100.00;101028.56;4976838;28;20072;-85
2021/01/02 09:47:43;;;;;;;128.13;60.42;;;;;;;1.99;100.00;101036.63;5011321;28;20609;-89
2021/01/02 09:50:09;;;;;;;127.00;59.65;;;;;;;1.98;100.00;101034.06;5011401;28;20034;-87
2021/01/02 09:52:35;;;;;;;115.78;58.65;;;;;;;2.00;100.00;101038.31;5010337;28;20065;-88
2021/01/02 09:55:00;;;;;;;116.65;57.53;;;;;;;1.98;100.00;101036.72;4977741;28;20142;-91
2021/01/02 09:57:26;;;;;;;124.88;57.20;;;;;;;1.96;100.00;101036.00;5007321;28;20042;-88
2021/01/02 09:59:54;;;;;;;120.57;55.88;;;;;;;1.94;100.00;101038.72;4974841;28;20042;-87
2021/01/02 10:02:20;;;;;;;121.97;55.80;;;;;;;1.99;100.00;101033.13;4981057;28;20069;-88
2021/01/02 10:04:47;;;;;;;126.85;56.72;;;;;;;1.98;100.00;101037.56;4994291;28;20046;-92
2021/01/02 10:07:15;;;;;;;123.72;55.92;;;;;;;2.00;100.00;101027.72;4977797;28;20564;-89
2021/01/02 10:09:42;;;;;;;124.30;54.00;;;;;;;2.00;100.00;101029.53;4979059;28;20050;-86
2021/01/02 10:12:09;;;;;;;128.75;55.90;;;;;;;1.98;100.00;101028.78;4995561;28;20032;-92
2021/01/02 10:14:36;;;;;;;113.90;49.17;;;;;;;1.98;100.00;101031.41;4980590;28;20050;-92
2021/01/02 10:17:02;;;;;;;114.97;49.53;;;;;;;1.98;100.00;101034.91;4978589;28;20034;-89
2021/01/02 10:19:27;;;;;;;125.40;63.03;;;;;;;2.01;100.00;101034.72;4992953;28;20455;-89
2021/01/02 10:21:52;;;;;;;120.85;54.55;;;;;;;2.03;100.00;101035.44;4990303;28;20066;-88
2021/01/02 10:24:18;;;;;;;119.53;57.75;;;;;;;2.06;100.00;101036.22;4966707;28;20106;-87
2021/01/02 10:26:44;;;;;;;103.32;45.20;;;;;;;2.02;100.00;101038.22;4961978;28;20081;-91
2021/01/02 10:29:10;;;;;;;123.15;58.97;;;;;;;2.09;100.00;101028.06;4995937;28;20095;-86
2021/01/02 10:31:35;;;;;;;120.53;58.10;;;;;;;2.10;100.00;101035.03;4994074;28;20046;-91
2021/01/02 10:34:00;;;;;;;120.20;51.78;;;;;;;2.08;100.00;101029.84;4998468;28;20034;-85
2021/01/02 10:36:26;;;;;;;113.45;50.50;;;;;;;2.09;100.00;101028.06;4976392;28;20037;-87
2021/01/02 10:38:51;;;;;;;121.50;53.10;;;;;;;2.10;100.00;101030.63;5008116;28;20038;-90
2021/01/02 10:41:16;;;;;;;114.38;48.67;;;;;;;2.10;100.00;101020.03;4989718;28;20129;-87
2021/01/02 10:43:42;;;;;;;107.47;51.03;;;;;;;2.13;100.00;101021.59;4961990;28;20038;-89
2021/01/02 10:46:09;;;;;;;108.53;48.88;;;;;;;2.12;100.00;101027.84;4990834;28;20394;-89
2021/01/02 10:48:35;;;;;;;114.90;53.65;;;;;;;2.13;100.00;101022.47;5008800;28;20038;-87
2021/01/02 10:51:00;;;;;;;121.50;57.92;;;;;;;2.17;100.00;101025.75;4991496;28;20061;-89
2021/01/02 10:53:26;;;;;;;117.00;56.72;;;;;;;2.18;100.00;101015.03;4974727;28;20394;-90
2021/01/02 10:55:51;;;;;;;113.25;49.78;;;;;;;2.17;100.00;101012.50;4993343;28;20038;-89
2021/01/02 10:58:16;;;;;;;118.03;55.72;;;;;;;2.20;100.00;101010.47;4974499;28;20088;-87
2021/01/02 11:00:42;;;;;;;123.47;55.53;;;;;;;2.22;100.00;101015.69;5008888;28;20041;-87
2021/01/02 11:03:08;;;;;;;114.70;50.72;;;;;;;2.20;100.00;101009.63;4993958;28;20049;-89
2021/01/02 11:05:33;;;;;;;122.43;57.33;;;;;;;2.19;100.00;101019.38;4980298;28;20033;-92
2021/01/02 11:07:58;;;;;;;120.28;55.10;;;;;;;2.26;100.00;101015.34;4977729;28;20034;-89
2021/01/02 11:10:24;;;;;;;109.30;52.35;;;;;;;2.22;100.00;101016.53;4995337;28;20034;-92
2021/01/02 11:12:49;;;;;;;111.57;48.47;;;;;;;2.21;100.00;101011.31;4980265;28;20152;-86
2021/01/02 11:15:15;;;;;;;114.68;50.95;;;;;;;2.20;100.00;101001.69;4977274;28;20038;-87
2021/01/02 11:17:40;;;;;;;121.57;54.05;;;;;;;2.22;100.00;101005.94;4977021;28;20033;-91
2021/01/02 11:20:07;;;;;;;118.35;53.75;;;;;;;2.26;100.00;100998.63;4976034;28;20061;-91
2021/01/02 11:22:33;;;;;;;117.45;55.33;;;;;;;2.25;100.00;100996.94;4989403;28;20390;-86